Time;durP1;ratioP1;P1;durP2;ratioP2;P2;SDS_P1;SDS_P2;PMS_P1;PMS_P2;Temp;Humidity;BMP_temperature;BMP_pressure;BME280_temperature;BME280_humidity;BME280_pressure;Samples;Min_cycle;Max_cycle;Signal;HPM_P1;HPM_P2
2023/01/10 00:00:42;;;;;;;11.13;7.38;;;;;;;7.02;nan;99044.19;5000655;28;20057;-69
2023/01/10 00:03:09;;;;;;;10.70;7.53;;;;;;;7.06;nan;99047.88;5006005;28;20037;-69
2023/01/10 00:05:36;;;;;;;11.05;7.53;;;;;;;7.11;nan;99045.38;4977032;28;20031;-69
2023/01/10 00:08:03;;;;;;;11.85;7.60;;;;;;;7.18;nan;99060.94;4990702;28;20036;-69
2023/01/10 00:10:29;;;;;;;11.00;7.00;;;;;;;7.12;nan;99038.31;5004801;28;20496;-69
2023/01/10 00:15:39;;;;;;;11.60;7.50;;;;;;;7.12;nan;99046.19;4999820;28;20060;-69
2023/01/10 00:18:04;;;;;;;11.27;7.60;;;;;;;7.17;nan;99048.88;4998407;28;20148;-70
2023/01/10 00:20:30;;;;;;;11.43;7.30;;;;;;;7.15;nan;99035.22;4997455;28;20031;-70
2023/01/10 00:22:56;;;;;;;11.13;7.43;;;;;;;7.20;nan;99035.31;5002739;28;20025;-69
2023/01/10 00:25:22;;;;;;;11.80;7.38;;;;;;;7.28;nan;99049.84;5005176;28;20075;-69
2023/01/10 00:28:00;;;;;;;11.23;6.65;;;;;;;7.28;nan;99045.41;5003184;28;20061;-69
2023/01/10 00:30:26;;;;;;;10.50;6.80;;;;;;;7.19;nan;99031.13;4989721;28;20053;-69
2023/01/10 00:32:52;;;;;;;11.32;7.00;;;;;;;7.21;nan;99027.22;4987288;28;20193;-69
2023/01/10 00:35:17;;;;;;;12.70;7.15;;;;;;;7.24;nan;99033.81;4999289;28;20551;-69
2023/01/10 00:37:43;;;;;;;12.00;7.78;;;;;;;7.24;nan;99034.59;5004127;28;20602;-69
2023/01/10 00:40:10;;;;;;;12.38;8.18;;;;;;;7.27;nan;99037.78;4997516;28;20343;-69
2023/01/10 00:45:22;;;;;;;11.77;7.47;;;;;;;7.21;nan;99029.84;5004044;28;20435;-69
2023/01/10 00:47:48;;;;;;;11.88;7.65;;;;;;;7.34;nan;99038.44;4999877;28;20033;-69
2023/01/10 00:50:13;;;;;;;13.45;7.65;;;;;;;7.20;nan;99027.47;4997960;28;20086;-69
2023/01/10 00:52:39;;;;;;;11.55;7.68;;;;;;;7.14;nan;99023.97;5005159;28;20080;-69
2023/01/10 00:55:05;;;;;;;11.93;7.47;;;;;;;7.28;nan;99041.97;5009306;28;20061;-70
2023/01/10 00:57:30;;;;;;;10.95;7.50;;;;;;;7.22;nan;99036.66;5004538;28;20030;-69
2023/01/10 00:59:55;;;;;;;12.95;7.40;;;;;;;7.28;nan;99044.59;5006941;28;20030;-69
2023/01/10 01:02:21;;;;;;;10.88;7.32;;;;;;;7.28;nan;99055.06;5004744;28;20061;-69
2023/01/10 01:04:46;;;;;;;11.70;7.60;;;;;;;7.27;nan;99061.34;4992340;28;20029;-69
2023/01/10 01:07:12;;;;;;;12.27;7.20;;;;;;;7.25;nan;99069.44;5007696;28;20034;-69
2023/01/10 01:10:25;;;;;;;11.80;7.30;;;;;;;7.16;nan;99055.13;4993929;28;20025;-69
2023/01/10 01:12:23;;;;;;;11.63;7.45;;;;;;;7.20;nan;99064.09;5004375;28;20041;-69
2023/01/10 01:14:48;;;;;;;13.57;8.13;;;;;;;7.16;nan;99052.50;5000147;28;20026;-69
2023/01/10 01:17:14;;;;;;;11.63;7.53;;;;;;;7.19;nan;99054.69;5004776;28;20025;-69
2023/01/10 01:19:40;;;;;;;11.82;7.65;;;;;;;7.12;nan;99049.59;5008079;28;20030;-69
2023/01/10 01:22:05;;;;;;;12.20;7.53;;;;;;;7.20;nan;99066.72;5004610;28;20014;-69
2023/01/10 01:24:30;;;;;;;9.93;7.05;;;;;;;7.23;nan;99068.88;5008038;28;20487;-69
2023/01/10 01:26:55;;;;;;;14.02;8.15;;;;;;;7.17;nan;99046.25;5008558;28;20083;-69
2023/01/10 01:29:21;;;;;;;12.38;7.55;;;;;;;7.23;nan;99063.63;5002975;28;20018;-69
2023/01/10 01:31:46;;;;;;;11.13;7.68;;;;;;;7.24;nan;99065.22;5006766;28;20026;-69
2023/01/10 01:34:12;;;;;;;13.10;7.65;;;;;;;7.27;nan;99067.38;5000814;28;20404;-69
2023/01/10 01:36:37;;;;;;;10.77;7.18;;;;;;;7.23;nan;99061.00;5005618;28;20045;-69
2023/01/10 01:39:02;;;;;;;13.63;8.07;;;;;;;7.19;nan;99058.09;5003348;28;20061;-69
2023/01/10 01:44:17;;;;;;;12.00;7.28;;;;;;;7.28;nan;99062.94;4984568;28;20044;-69
2023/01/10 01:46:52;;;;;;;13.80;7.28;;;;;;;7.26;nan;99049.31;4997362;28;20032;-69
2023/01/10 01:49:22;;;;;;;12.43;7.50;;;;;;;6.94;nan;99002.66;5008024;28;20034;-69
2023/01/10 01:51:53;;;;;;;11.93;7.35;;;;;;;7.28;nan;99048.03;5004728;28;20036;-69
2023/01/10 01:54:18;;;;;;;11.10;7.60;;;;;;;7.26;nan;99042.22;5007203;28;20488;-69
2023/01/10 01:56:50;;;;;;;10.10;6.88;;;;;;;7.34;nan;99054.13;5003187;28;20109;-69
2023/01/10 01:59:39;;;;;;;10.88;7.20;;;;;;;7.26;nan;99046.69;5004374;28;20033;-70
2023/01/10 02:02:09;;;;;;;11.07;7.30;;;;;;;7.30;nan;99045.94;5001285;28;20056;-69
2023/01/10 02:04:47;;;;;;;11.57;7.25;;;;;;;7.29;nan;99046.19;4987143;28;20042;-70
2023/01/10 02:07:13;;;;;;;11.07;7.43;;;;;;;7.35;nan;99053.09;5006135;28;20073;-69
2023/01/10 02:09:48;;;;;;;11.45;7.43;;;;;;;7.29;nan;99048.81;5004419;28;20060;-69
2023/01/10 02:12:14;;;;;;;11.63;7.10;;;;;;;7.35;nan;99060.94;5002258;28;20084;-69
2023/01/10 02:14:42;;;;;;;12.05;7.60;;;;;;;7.32;nan;99061.44;5003225;28;20030;-69
2023/01/10 02:17:11;;;;;;;9.93;6.90;;;;;;;7.32;nan;99051.75;5006650;28;20488;-69
2023/01/10 02:19:45;;;;;;;11.80;7.50;;;;;;;7.36;nan;99052.88;5004693;28;20129;-69
2023/01/10 02:22:30;;;;;;;11.07;6.57;;;;;;;7.39;nan;99055.00;5002749;28;20030;-68
2023/01/10 02:25:21;;;;;;;10.25;6.63;;;;;;;7.41;nan;99062.63;5002995;28;20403;-69
2023/01/10 02:27:52;;;;;;;11.13;6.95;;;;;;;7.41;nan;99066.03;5003349;28;20025;-68
2023/01/10 02:30:43;;;;;;;10.15;7.22;;;;;;;7.45;nan;99063.75;4989983;28;20188;-69
2023/01/10 02:33:33;;;;;;;11.68;7.20;;;;;;;7.50;nan;99070.91;5008185;28;20022;-69
2023/01/10 02:36:29;;;;;;;10.75;6.13;;;;;;;7.54;nan;99064.16;5007028;28;20030;-70
2023/01/10 02:39:20;;;;;;;11.18;7.50;;;;;;;7.57;nan;99064.47;5004410;28;20128;-69
2023/01/10 02:42:04;;;;;;;11.38;6.93;;;;;;;7.60;nan;99065.81;5005294;28;20034;-69
2023/01/10 02:44:35;;;;;;;9.95;6.45;;;;;;;7.62;nan;99067.19;4992743;28;20029;-70
2023/01/10 02:47:06;;;;;;;11.48;7.25;;;;;;;7.65;nan;99071.94;5005130;28;20052;-70
2023/01/10 02:49:44;;;;;;;12.63;6.95;;;;;;;7.67;nan;99080.34;5006574;28;20022;-69
2023/01/10 02:52:14;;;;;;;10.73;6.90;;;;;;;7.54;nan;99059.72;5000678;28;20753;-69
2023/01/10 02:54:40;;;;;;;12.52;7.68;;;;;;;7.54;nan;99051.03;5005843;28;20026;-69
2023/01/10 02:57:18;;;;;;;13.52;7.68;;;;;;;7.73;nan;99083.03;4986171;28;20030;-67
2023/01/10 02:59:46;;;;;;;11.38;6.97;;;;;;;7.73;nan;99086.44;5011257;28;20029;-68
2023/01/10 03:02:31;;;;;;;13.23;7.15;;;;;;;7.75;nan;99091.47;4997043;28;20114;-68
2023/01/10 03:05:29;;;;;;;11.52;7.80;;;;;;;7.77;nan;99100.69;5005516;28;20030;-67
2023/01/10 03:08:06;;;;;;;12.40;7.50;;;;;;;7.62;nan;99079.50;4985710;28;20057;-68
2023/01/10 03:11:02;;;;;;;11.70;7.55;;;;;;;7.71;nan;99083.31;4998951;28;20354;-68
2023/01/10 03:13:37;;;;;;;11.18;7.20;;;;;;;7.80;nan;99102.81;5005457;28;20068;-69
2023/01/10 03:16:06;;;;;;;12.90;7.55;;;;;;;7.76;nan;99104.34;4998270;28;20559;-69
2023/01/10 03:18:42;;;;;;;12.18;7.75;;;;;;;7.81;nan;99112.28;5004238;28;20063;-69
2023/01/10 03:21:10;;;;;;;11.55;7.72;;;;;;;7.74;nan;99103.78;5006078;28;20045;-68
2023/01/10 03:23:37;;;;;;;11.43;7.63;;;;;;;7.76;nan;99103.56;5008416;28;20026;-69
2023/01/10 03:26:05;;;;;;;13.05;7.90;;;;;;;7.77;nan;99102.50;4995649;28;20042;-69
2023/01/10 03:28:39;;;;;;;11.98;7.60;;;;;;;7.89;nan;99116.31;5001329;28;20034;-69
2023/01/10 03:31:13;;;;;;;13.52;7.43;;;;;;;7.90;nan;99110.03;5003911;28;20033;-68
2023/01/10 03:33:39;;;;;;;12.43;7.63;;;;;;;7.92;nan;99107.97;5004915;28;20488;-69
2023/01/10 03:36:30;;;;;;;13.95;8.18;;;;;;;7.95;nan;99109.31;4990018;28;20045;-69
2023/01/10 03:39:06;;;;;;;11.93;7.55;;;;;;;8.05;nan;99118.16;5002526;28;20022;-68
2023/01/10 03:41:59;;;;;;;11.63;7.32;;;;;;;8.08;nan;99128.16;4981039;28;20038;-68
2023/01/10 03:44:45;;;;;;;13.13;7.72;;;;;;;8.11;nan;99139.97;5003542;28;20068;-69
2023/01/10 03:47:47;;;;;;;10.98;6.90;;;;;;;8.12;nan;99141.59;5000970;28;20026;-68
2023/01/10 03:50:25;;;;;;;10.85;6.30;;;;;;;8.07;nan;99136.28;4999336;28;20026;-68
2023/01/10 03:52:51;;;;;;;11.77;7.35;;;;;;;8.00;nan;99135.63;4999396;28;20033;-68
2023/01/10 03:55:23;;;;;;;13.30;7.03;;;;;;;8.02;nan;99155.34;5002617;28;20026;-68
2023/01/10 03:57:48;;;;;;;10.60;7.22;;;;;;;7.99;nan;99170.72;4999185;28;20038;-68
2023/01/10 04:00:14;;;;;;;10.95;6.72;;;;;;;8.16;nan;99203.00;5007268;28;20034;-67
2023/01/10 04:02:40;;;;;;;11.20;7.00;;;;;;;8.07;nan;99178.22;5000038;28;20034;-68
2023/01/10 04:05:06;;;;;;;10.02;6.40;;;;;;;8.13;nan;99198.22;5000121;28;20500;-69
2023/01/10 04:07:31;;;;;;;11.85;6.78;;;;;;;8.08;nan;99191.06;5008149;28;20050;-68
2023/01/10 04:09:57;;;;;;;12.57;7.20;;;;;;;8.06;nan;99202.84;5005684;28;20058;-68
2023/01/10 04:12:23;;;;;;;11.30;6.55;;;;;;;8.13;nan;99224.44;4986147;28;20116;-68
2023/01/10 04:14:48;;;;;;;12.73;6.53;;;;;;;8.09;nan;99218.91;5000717;28;20026;-68
2023/01/10 04:17:16;;;;;;;10.20;6.50;;;;;;;8.11;nan;99221.25;4983048;28;20030;-69
2023/01/10 04:19:41;;;;;;;15.10;6.40;;;;;;;8.01;nan;99194.88;5006397;28;20080;-66
2023/01/10 04:22:08;;;;;;;9.95;6.03;;;;;;;8.06;nan;99203.63;4992065;28;20029;-67
2023/01/10 04:24:33;;;;;;;9.00;6.13;;;;;;;8.05;nan;99222.22;5005406;28;20022;-67
2023/01/10 04:26:59;;;;;;;9.77;5.95;;;;;;;7.99;nan;99223.16;5004459;28;20370;-67
2023/01/10 04:29:24;;;;;;;11.93;7.20;;;;;;;7.95;nan;99237.75;5011010;28;20084;-66
2023/01/10 04:31:49;;;;;;;17.67;9.65;;;;;;;7.93;nan;99250.34;5008208;28;20396;-67
2023/01/10 04:34:15;;;;;;;15.98;8.80;;;;;;;7.93;nan;99274.72;5011093;28;20484;-67
2023/01/10 04:36:41;;;;;;;17.42;9.95;;;;;;;7.84;nan;99270.88;5006153;28;20113;-68
2023/01/10 04:39:07;;;;;;;16.73;10.05;;;;;;;7.79;nan;99282.06;5013427;28;20037;-67
2023/01/10 04:41:33;;;;;;;18.05;10.80;;;;;;;7.73;nan;99297.91;4992694;28;20492;-67
2023/01/10 04:43:59;;;;;;;18.00;9.48;;;;;;;7.60;nan;99291.13;5008487;28;20047;-67
2023/01/10 04:46:24;;;;;;;18.02;11.10;;;;;;;7.55;nan;99293.66;4998499;28;20113;-67
2023/01/10 04:48:50;;;;;;;21.25;12.18;;;;;;;7.38;nan;99293.56;5007331;28;20113;-68
2023/01/10 04:51:15;;;;;;;21.77;12.50;;;;;;;7.38;nan;99301.44;4981529;28;20048;-69
2023/01/10 04:53:41;;;;;;;23.05;12.48;;;;;;;7.22;nan;99298.47;5002079;28;20033;-67
2023/01/10 04:56:15;;;;;;;20.95;11.95;;;;;;;7.15;nan;99310.88;4987011;28;20025;-69
2023/01/10 04:58:40;;;;;;;26.23;12.20;;;;;;;7.08;nan;99309.44;5006796;28;20042;-68
2023/01/10 05:01:10;;;;;;;22.55;12.32;;;;;;;7.08;nan;99328.53;5006759;28;20038;-68
2023/01/10 05:03:36;;;;;;;21.25;13.02;;;;;;;7.03;nan;99331.03;5008727;28;20030;-69
2023/01/10 05:06:01;;;;;;;21.90;13.48;;;;;;;6.95;nan;99334.81;5005423;28;20133;-69
2023/01/10 05:08:27;;;;;;;26.30;13.07;;;;;;;6.82;nan;99321.94;5005725;28;20383;-70
2023/01/10 05:10:52;;;;;;;23.42;11.98;;;;;;;6.93;nan;99347.31;5008473;28;20029;-70
2023/01/10 05:13:18;;;;;;;21.20;11.88;;;;;;;6.78;nan;99334.69;5004014;28;20029;-71
2023/01/10 05:15:43;;;;;;;25.55;12.40;;;;;;;6.84;nan;99345.25;5007397;28;20116;-70
2023/01/10 05:18:08;;;;;;;25.20;13.55;;;;;;;6.87;nan;99350.84;5004574;28;20099;-66
2023/01/10 05:20:34;;;;;;;18.95;10.52;;;;;;;6.91;nan;99366.88;5010609;28;20030;-67
2023/01/10 05:22:59;;;;;;;18.63;11.18;;;;;;;6.88;nan;99364.72;5011326;28;20028;-71
2023/01/10 05:25:24;;;;;;;19.40;11.00;;;;;;;6.70;nan;99327.16;5001304;28;20029;-71
2023/01/10 05:27:50;;;;;;;25.05;12.07;;;;;;;6.86;nan;99351.84;5006723;28;20026;-71
2023/01/10 05:30:15;;;;;;;23.38;12.32;;;;;;;6.76;nan;99321.03;5023789;28;20420;-68
2023/01/10 05:32:41;;;;;;;20.70;11.00;;;;;;;6.85;nan;99345.03;5008069;28;20025;-67
2023/01/10 05:35:07;;;;;;;19.80;11.43;;;;;;;6.78;nan;99323.44;4979032;28;20404;-67
2023/01/10 05:37:32;;;;;;;21.23;11.27;;;;;;;6.83;nan;99341.84;5006983;28;20104;-67
2023/01/10 05:39:57;;;;;;;22.88;11.85;;;;;;;6.79;nan;99356.41;4998432;28;20042;-67
2023/01/10 05:42:22;;;;;;;20.98;11.10;;;;;;;6.77;nan;99356.63;4993112;28;20033;-68
2023/01/10 05:44:48;;;;;;;21.30;11.32;;;;;;;6.85;nan;99373.00;5007534;28;20018;-68
2023/01/10 05:47:13;;;;;;;22.23;11.82;;;;;;;6.82;nan;99367.22;5005106;28;21181;-71
2023/01/10 05:49:38;;;;;;;21.23;12.10;;;;;;;6.84;nan;99363.56;5008214;28;20037;-68
2023/01/10 05:52:04;;;;;;;21.08;12.52;;;;;;;6.86;nan;99366.78;4997869;28;20041;-67
2023/01/10 05:54:30;;;;;;;23.52;12.50;;;;;;;6.68;nan;99344.09;4986478;28;20361;-68
2023/01/10 05:56:56;;;;;;;24.15;12.18;;;;;;;6.81;nan;99381.31;5007347;28;20380;-69
2023/01/10 05:59:21;;;;;;;24.25;13.45;;;;;;;6.78;nan;99392.25;4985257;28;20049;-67
2023/01/10 06:01:47;;;;;;;24.25;13.23;;;;;;;6.75;nan;99397.13;5009221;28;20446;-68
2023/01/10 06:04:13;;;;;;;25.02;13.07;;;;;;;6.72;nan;99402.81;5006403;28;20141;-69
2023/01/10 06:06:38;;;;;;;29.55;14.18;;;;;;;6.63;nan;99399.69;5007657;28;20042;-68
2023/01/10 06:09:04;;;;;;;27.75;14.25;;;;;;;6.57;nan;99380.47;5002472;28;20045;-69
2023/01/10 06:11:29;;;;;;;27.70;13.57;;;;;;;6.58;nan;99391.72;5007552;28;20044;-69
2023/01/10 06:13:58;;;;;;;23.50;13.63;;;;;;;6.43;nan;99373.84;5008514;28;20113;-69
2023/01/10 06:16:24;;;;;;;28.63;14.40;;;;;;;6.53;nan;99400.22;4991283;28;20116;-69
2023/01/10 06:18:49;;;;;;;22.48;13.32;;;;;;;6.53;nan;99421.16;5004167;28;20113;-68
2023/01/10 06:21:15;;;;;;;23.25;13.00;;;;;;;6.53;nan;99436.06;5007103;28;20023;-69
2023/01/10 06:23:40;;;;;;;23.75;12.88;;;;;;;6.47;nan;99435.13;4991476;28;20450;-68
2023/01/10 06:26:06;;;;;;;25.25;12.60;;;;;;;6.45;nan;99437.19;5006023;28;20493;-69
2023/01/10 06:28:32;;;;;;;25.50;13.57;;;;;;;6.39;nan;99431.03;5007567;28;20018;-69
2023/01/10 06:30:57;;;;;;;22.65;12.57;;;;;;;6.35;nan;99440.31;4989483;28;20516;-68
2023/01/10 06:33:22;;;;;;;23.00;11.65;;;;;;;6.36;nan;99444.50;5006123;28;20040;-68
2023/01/10 06:35:48;;;;;;;22.70;11.95;;;;;;;6.31;nan;99447.00;5005453;28;20364;-68
2023/01/10 06:38:14;;;;;;;20.88;11.98;;;;;;;6.29;nan;99451.66;5008063;28;20440;-69
2023/01/10 06:40:40;;;;;;;22.23;11.90;;;;;;;6.20;nan;99446.94;4993408;28;20546;-68
2023/01/10 06:43:05;;;;;;;21.63;11.60;;;;;;;6.18;nan;99453.19;5009602;28;20033;-67
2023/01/10 06:45:31;;;;;;;21.88;11.50;;;;;;;5.95;nan;99413.84;5004553;28;20172;-68
2023/01/10 06:47:56;;;;;;;24.42;12.60;;;;;;;6.21;nan;99461.63;5005414;28;20030;-69
2023/01/10 06:50:22;;;;;;;22.05;12.38;;;;;;;6.06;nan;99438.47;4989594;28;20022;-67
2023/01/10 06:52:58;;;;;;;19.85;11.27;;;;;;;6.18;nan;99462.84;5000449;28;20034;-68
2023/01/10 06:55:24;;;;;;;22.17;11.10;;;;;;;6.14;nan;99465.09;5003456;28;20049;-68
2023/01/10 06:57:55;;;;;;;20.05;9.00;;;;;;;6.17;nan;99490.78;4987673;28;20040;-68
2023/01/10 07:00:21;;;;;;;18.77;10.18;;;;;;;6.12;nan;99498.50;5006063;28;20021;-69
2023/01/10 07:02:46;;;;;;;16.13;8.32;;;;;;;5.97;nan;99485.00;5001651;28;20495;-68
2023/01/10 07:05:12;;;;;;;12.48;7.10;;;;;;;5.92;nan;99503.09;5000394;28;20025;-69
2023/01/10 07:07:37;;;;;;;15.13;7.72;;;;;;;5.93;nan;99509.91;5006078;28;20133;-69
2023/01/10 07:10:03;;;;;;;12.50;6.32;;;;;;;5.94;nan;99530.66;5007371;28;20026;-67
2023/01/10 07:12:28;;;;;;;12.60;6.97;;;;;;;5.91;nan;99538.91;5003906;28;20101;-68
2023/01/10 07:14:53;;;;;;;11.05;6.82;;;;;;;5.91;nan;99551.13;5014706;28;20018;-67
2023/01/10 07:17:19;;;;;;;10.80;6.28;;;;;;;5.87;nan;99563.84;5002008;28;20025;-67
2023/01/10 07:19:44;;;;;;;13.32;6.55;;;;;;;5.84;nan;99568.69;5001423;28;20072;-66
2023/01/10 07:22:10;;;;;;;12.07;6.32;;;;;;;5.78;nan;99564.34;5004996;28;20065;-67
2023/01/10 07:24:36;;;;;;;11.23;6.47;;;;;;;5.76;nan;99577.59;4990185;28;20029;-67
2023/01/10 07:27:01;;;;;;;15.82;6.82;;;;;;;5.80;nan;99593.66;5002504;28;20182;-67
2023/01/10 07:29:26;;;;;;;13.80;7.43;;;;;;;5.74;nan;99590.84;5004116;28;20105;-68
2023/01/10 07:31:52;;;;;;;12.00;6.25;;;;;;;5.75;nan;99586.47;5006341;28;20037;-67
2023/01/10 07:34:18;;;;;;;13.82;6.75;;;;;;;5.69;nan;99582.06;5006193;28;20026;-67
2023/01/10 07:36:43;;;;;;;13.02;6.32;;;;;;;5.68;nan;99588.31;5006135;28;20033;-67
2023/01/10 07:39:08;;;;;;;13.25;6.70;;;;;;;5.66;nan;99603.41;5005061;28;20030;-66
2023/01/10 07:41:34;;;;;;;12.65;6.57;;;;;;;5.64;nan;99605.41;5005041;28;20083;-69
2023/01/10 07:43:59;;;;;;;14.13;6.63;;;;;;;5.64;nan;99614.06;5005841;28;20022;-69
2023/01/10 07:46:25;;;;;;;15.38;5.72;;;;;;;5.58;nan;99617.53;5003090;28;20029;-69
2023/01/10 07:48:50;;;;;;;11.95;7.40;;;;;;;5.61;nan;99637.97;5005809;28;20068;-69
2023/01/10 07:51:16;;;;;;;14.15;7.20;;;;;;;5.53;nan;99635.59;4990569;28;20117;-69
2023/01/10 07:53:41;;;;;;;13.70;6.65;;;;;;;5.54;nan;99639.84;5003757;28;20026;-70
2023/01/10 07:56:07;;;;;;;16.08;7.43;;;;;;;5.53;nan;99654.72;5004177;28;20026;-69
2023/01/10 07:58:32;;;;;;;16.52;7.65;;;;;;;5.53;nan;99652.09;5006341;28;20030;-71
2023/01/10 08:00:59;;;;;;;12.23;7.10;;;;;;;5.52;nan;99647.06;5004939;28;20085;-69
2023/01/10 08:03:24;;;;;;;13.25;6.70;;;;;;;5.53;nan;99651.28;5005953;28;20033;-69
2023/01/10 08:05:57;;;;;;;12.25;6.40;;;;;;;5.53;nan;99656.50;5002565;28;20045;-69
2023/01/10 08:08:23;;;;;;;13.18;6.90;;;;;;;5.38;nan;99633.28;5007023;28;20744;-68
2023/01/10 08:10:48;;;;;;;11.95;6.38;;;;;;;5.48;nan;99644.09;5005615;28;20160;-69
2023/01/10 08:13:14;;;;;;;13.60;6.72;;;;;;;5.46;nan;99651.34;5001277;28;20030;-69
2023/01/10 08:15:39;;;;;;;10.45;6.68;;;;;;;5.33;nan;99636.53;4982915;28;20168;-69
2023/01/10 08:18:04;;;;;;;10.30;5.70;;;;;;;5.48;nan;99670.22;5004211;28;20468;-69
2023/01/10 08:20:30;;;;;;;9.15;5.43;;;;;;;5.48;nan;99669.38;5001337;28;20025;-69
2023/01/10 08:22:59;;;;;;;12.00;5.78;;;;;;;5.46;nan;99668.78;5011746;28;20029;-71
2023/01/10 08:25:25;;;;;;;15.18;6.63;;;;;;;5.38;nan;99680.28;4996962;28;20412;-71
2023/01/10 08:27:50;;;;;;;10.25;5.95;;;;;;;5.44;nan;99694.34;5004821;28;20057;-70
2023/01/10 08:30:16;;;;;;;12.85;6.72;;;;;;;5.34;nan;99697.41;4978097;28;20046;-70
2023/01/10 08:32:42;;;;;;;11.73;6.30;;;;;;;5.29;nan;99705.03;4990107;28;20042;-69
2023/01/10 08:35:08;;;;;;;10.70;6.72;;;;;;;5.32;nan;99705.41;5004894;28;20032;-69
2023/01/10 08:37:34;;;;;;;10.45;6.35;;;;;;;5.29;nan;99710.25;5007942;28;20053;-69
2023/01/10 08:39:59;;;;;;;11.52;7.22;;;;;;;5.37;nan;99732.72;5007169;28;20116;-69
2023/01/10 08:42:25;;;;;;;11.02;6.22;;;;;;;5.30;nan;99730.13;5006807;28;20030;-69
2023/01/10 08:44:50;;;;;;;11.18;5.68;;;;;;;5.24;nan;99716.09;5004160;28;20022;-67
2023/01/10 08:47:15;;;;;;;10.63;5.88;;;;;;;5.35;nan;99729.53;5001560;28;20399;-71
2023/01/10 08:49:41;;;;;;;8.95;5.65;;;;;;;5.31;nan;99716.84;5008299;28;20062;-67
2023/01/10 08:52:06;;;;;;;9.82;6.50;;;;;;;5.25;nan;99709.88;4989093;28;20479;-68
2023/01/10 08:54:32;;;;;;;10.75;6.55;;;;;;;5.31;nan;99732.53;5003130;28;20026;-69
2023/01/10 08:56:58;;;;;;;9.55;5.82;;;;;;;5.27;nan;99735.78;5001374;28;20567;-73
2023/01/10 08:59:23;;;;;;;10.63;6.10;;;;;;;5.21;nan;99737.38;5007575;28;20088;-68
2023/01/10 09:01:49;;;;;;;9.48;6.30;;;;;;;5.31;nan;99752.59;5006337;28;20503;-68
2023/01/10 09:04:14;;;;;;;10.50;6.00;;;;;;;5.26;nan;99745.41;5001411;28;20037;-69
2023/01/10 09:06:39;;;;;;;10.18;6.03;;;;;;;5.17;nan;99719.72;5001854;28;20123;-69
2023/01/10 09:09:05;;;;;;;12.30;5.63;;;;;;;5.20;nan;99727.97;4998136;28;20030;-69
2023/01/10 09:11:30;;;;;;;10.82;5.93;;;;;;;5.28;nan;99742.59;4998404;28;20018;-69
2023/01/10 09:13:56;;;;;;;9.38;6.43;;;;;;;5.20;nan;99730.56;5006003;28;20048;-70
2023/01/10 09:16:22;;;;;;;9.18;5.80;;;;;;;5.20;nan;99725.34;5008025;28;20026;-69
2023/01/10 09:18:48;;;;;;;14.40;6.55;;;;;;;5.21;nan;99733.97;5003661;28;20029;-69
2023/01/10 09:21:13;;;;;;;11.63;6.95;;;;;;;5.24;nan;99747.44;4976958;28;20019;-71
2023/01/10 09:23:39;;;;;;;12.07;6.20;;;;;;;5.22;nan;99746.84;5007888;28;20088;-71
2023/01/10 09:26:05;;;;;;;12.40;7.30;;;;;;;5.23;nan;99751.03;5010671;28;20091;-70
2023/01/10 09:28:30;;;;;;;14.95;8.10;;;;;;;5.20;nan;99730.56;4990490;28;20030;-70
2023/01/10 09:30:56;;;;;;;16.83;8.82;;;;;;;5.22;nan;99739.00;5007607;28;20041;-71
2023/01/10 09:33:22;;;;;;;12.52;7.57;;;;;;;5.22;nan;99744.22;5013453;28;20054;-71
2023/01/10 09:35:48;;;;;;;13.45;6.90;;;;;;;5.23;nan;99753.66;5007057;28;20025;-68
2023/01/10 09:38:16;;;;;;;14.52;8.55;;;;;;;5.21;nan;99755.66;5008573;28;20022;-69
2023/01/10 09:40:50;;;;;;;16.67;8.25;;;;;;;5.27;nan;99767.09;5005430;28;20468;-69
2023/01/10 09:43:47;;;;;;;23.40;14.73;;;;;;;5.26;nan;99765.47;5006479;28;20025;-69
2023/01/10 09:46:16;;;;;;;16.08;10.00;;;;;;;5.26;nan;99763.66;4975390;28;20041;-69
2023/01/10 09:49:03;;;;;;;20.35;12.63;;;;;;;5.26;nan;99761.06;5006131;28;20025;-69
2023/01/10 09:51:42;;;;;;;10.73;6.75;;;;;;;5.18;nan;99753.47;5002858;28;20027;-70
2023/01/10 09:54:16;;;;;;;15.05;8.20;;;;;;;5.22;nan;99772.94;5002950;28;20022;-69
2023/01/10 09:56:43;;;;;;;12.73;6.82;;;;;;;5.21;nan;99778.34;5008186;28;20104;-69
2023/01/10 09:59:17;;;;;;;16.77;10.30;;;;;;;5.11;nan;99766.53;5011289;28;20079;-69
2023/01/10 10:01:43;;;;;;;22.23;14.45;;;;;;;5.09;nan;99770.34;5002324;28;20034;-69
2023/01/10 10:04:21;;;;;;;18.50;11.77;;;;;;;5.19;nan;99785.56;4991373;28;20026;-69
2023/01/10 10:06:48;;;;;;;16.10;10.07;;;;;;;5.18;nan;99776.16;5004338;28;20041;-69
2023/01/10 10:09:20;;;;;;;13.55;8.70;;;;;;;5.25;nan;99784.78;4993599;28;20169;-69
2023/01/10 10:11:55;;;;;;;15.90;8.70;;;;;;;5.21;nan;99786.97;5003989;28;20028;-70
2023/01/10 10:14:23;;;;;;;12.82;7.60;;;;;;;5.25;nan;99780.34;5005689;28;20097;-70
2023/01/10 10:16:49;;;;;;;11.90;6.90;;;;;;;5.26;nan;99784.56;4987470;28;20045;-70
2023/01/10 10:19:36;;;;;;;12.68;7.38;;;;;;;5.25;nan;99784.78;4990626;28;20500;-71
2023/01/10 10:22:25;;;;;;;9.57;5.90;;;;;;;5.25;nan;99790.78;5005011;28;20030;-70
2023/01/10 10:24:51;;;;;;;12.45;5.43;;;;;;;5.26;nan;99792.38;4989838;28;20555;-70
2023/01/10 10:27:39;;;;;;;9.15;5.78;;;;;;;5.27;nan;99783.56;4999680;28;20065;-71
2023/01/10 10:31:02;;;;;;;12.45;5.72;;;;;;;5.26;nan;99779.31;5001039;28;20032;-71
2023/01/10 10:33:46;;;;;;;8.82;5.30;;;;;;;5.22;nan;99777.31;4892047;29;20568;-71
2023/01/10 10:36:22;;;;;;;9.65;5.55;;;;;;;5.17;nan;99767.53;4892060;29;20032;-73
2023/01/10 10:38:50;;;;;;;12.93;5.50;;;;;;;5.22;nan;99774.72;4893260;29;20078;-74
2023/01/10 10:41:33;;;;;;;12.38;6.00;;;;;;;5.24;nan;99781.38;4891261;29;20036;-75
2023/01/10 10:44:03;;;;;;;12.60;5.68;;;;;;;5.26;nan;99783.75;4890552;29;20037;-73
2023/01/10 10:46:30;;;;;;;9.40;5.38;;;;;;;4.96;nan;99733.84;4875621;29;20043;-73
2023/01/10 10:48:59;;;;;;;9.35;5.47;;;;;;;5.23;nan;99774.53;4892932;29;21109;-73
2023/01/10 10:51:44;;;;;;;11.82;6.07;;;;;;;5.27;nan;99788.78;4897591;29;20135;-74
2023/01/10 10:54:13;;;;;;;12.38;6.22;;;;;;;5.32;nan;99790.78;4892955;29;20040;-73
2023/01/10 10:56:39;;;;;;;10.63;6.50;;;;;;;5.30;nan;99787.56;4888900;29;20035;-73
2023/01/10 10:59:04;;;;;;;9.05;5.45;;;;;;;5.31;nan;99789.16;4889315;29;20535;-72
2023/01/10 11:01:30;;;;;;;9.20;5.32;;;;;;;5.17;nan;99772.75;4892616;29;20056;-72
2023/01/10 11:03:59;;;;;;;9.93;5.50;;;;;;;5.26;nan;99784.56;4891909;29;20609;-71
2023/01/10 11:06:28;;;;;;;11.18;5.90;;;;;;;5.19;nan;99770.72;4906896;28;20504;-72
2023/01/10 11:09:00;;;;;;;9.05;5.47;;;;;;;5.30;nan;99793.59;4943247;28;20533;-72
2023/01/10 11:11:29;;;;;;;9.55;4.97;;;;;;;5.28;nan;99787.75;4968674;28;20046;-73
2023/01/10 11:14:00;;;;;;;10.37;5.17;;;;;;;5.31;nan;99792.56;4980186;28;20113;-72
2023/01/10 11:16:32;;;;;;;7.05;4.78;;;;;;;5.29;nan;99792.00;4964933;28;20506;-73
2023/01/10 11:19:09;;;;;;;6.90;4.95;;;;;;;5.31;nan;99783.94;4967601;28;20068;-71
2023/01/10 11:21:37;;;;;;;9.57;5.10;;;;;;;5.30;nan;99777.13;4967745;28;20031;-72
2023/01/10 11:24:03;;;;;;;9.07;5.32;;;;;;;5.22;nan;99765.09;4981563;28;20027;-72
2023/01/10 11:26:35;;;;;;;8.32;5.43;;;;;;;5.33;nan;99774.09;4968928;28;20037;-73
2023/01/10 11:29:16;;;;;;;9.25;4.88;;;;;;;5.33;nan;99779.31;4969967;28;20528;-72
2023/01/10 11:31:43;;;;;;;9.60;5.53;;;;;;;5.30;nan;99771.91;4967569;28;20515;-73
2023/01/10 11:34:32;;;;;;;8.13;4.95;;;;;;;5.36;nan;99778.91;4969325;28;20023;-73
2023/01/10 11:37:02;;;;;;;8.88;5.43;;;;;;;5.36;nan;99776.28;4967437;28;20026;-71
2023/01/10 11:39:30;;;;;;;10.40;5.95;;;;;;;5.35;nan;99781.72;4968613;28;20034;-70
2023/01/10 11:41:58;;;;;;;8.35;5.28;;;;;;;5.28;nan;99768.69;4968604;28;20031;-69
2023/01/10 11:44:26;;;;;;;9.85;5.43;;;;;;;5.38;nan;99789.16;4969008;28;20073;-70
2023/01/10 11:46:57;;;;;;;9.30;5.22;;;;;;;5.33;nan;99774.88;4966382;28;20023;-70
2023/01/10 11:49:39;;;;;;;11.50;5.07;;;;;;;5.42;nan;99791.13;4967788;28;20073;-70
2023/01/10 11:52:26;;;;;;;6.82;4.20;;;;;;;5.45;nan;99785.50;4966047;28;20448;-69
2023/01/10 11:54:55;;;;;;;9.10;4.75;;;;;;;5.37;nan;99767.47;4964762;28;20026;-70
2023/01/10 11:57:28;;;;;;;7.32;4.75;;;;;;;5.51;nan;99792.53;4967465;28;20035;-70
2023/01/10 12:00:07;;;;;;;7.97;5.00;;;;;;;5.51;nan;99792.53;4963877;28;20585;-70
2023/01/10 12:02:40;;;;;;;10.10;5.60;;;;;;;5.51;nan;99792.53;4959143;28;20034;-70
2023/01/10 12:05:11;;;;;;;7.72;4.82;;;;;;;5.36;nan;99759.81;4957823;28;20031;-69
2023/01/10 12:08:22;;;;;;;8.43;5.30;;;;;;;5.52;nan;99791.50;4997933;28;20065;-70